createdAt,value
2022-08-17T00:01:51.522Z,78.37
2022-08-17T00:04:24.404Z,78.70
2022-08-17T00:06:55.794Z,78.34
2022-08-17T00:09:27.096Z,78.81
2022-08-17T00:12:40.695Z,78.60
2022-08-17T00:14:49.901Z,78.69
2022-08-17T00:17:21.443Z,78.88
2022-08-17T00:19:52.740Z,79.30
2022-08-17T00:22:34.399Z,78.58
2022-08-17T00:25:16.053Z,78.42
2022-08-17T00:27:47.438Z,78.32
2022-08-17T00:30:18.769Z,78.85
2022-08-17T00:33:15.279Z,78.91
2022-08-17T00:35:43.629Z,79.43
2022-08-17T00:38:15.554Z,79.11
2022-08-17T00:40:51.692Z,79.30
2022-08-17T00:43:28.629Z,79.38
2022-08-17T00:46:02.936Z,79.44
2022-08-17T00:48:35.292Z,78.91
2022-08-17T00:51:40.553Z,79.78
2022-08-17T00:54:27.058Z,79.57
2022-08-17T00:57:06.878Z,80.13
2022-08-17T00:59:45.058Z,79.48
2022-08-17T01:02:19.766Z,79.42
2022-08-17T01:04:52.857Z,79.64
2022-08-17T01:07:25.363Z,79.90
2022-08-17T01:09:57.210Z,80.18
2022-08-17T01:12:29.126Z,80.64
2022-08-17T01:15:00.446Z,80.63
2022-08-17T01:17:32.632Z,80.32
2022-08-17T01:20:04.558Z,80.36
2022-08-17T01:22:35.987Z,80.56
2022-08-17T01:25:08.856Z,80.69
2022-08-17T01:27:41.409Z,80.08
2022-08-17T01:30:58.506Z,80.62
2022-08-17T01:33:05.640Z,80.49
2022-08-17T01:35:38.337Z,80.47
2022-08-17T01:38:09.642Z,80.58
2022-08-17T01:40:46.775Z,80.10
2022-08-17T01:43:32.889Z,80.50
2022-08-17T01:46:04.427Z,80.98
2022-08-17T01:48:38.701Z,80.63
2022-08-17T01:51:10.148Z,81.14
2022-08-17T01:53:45.906Z,80.98
2022-08-17T01:56:20.606Z,81.05
2022-08-17T01:58:52.416Z,81.02
2022-08-17T02:01:26.581Z,81.55
2022-08-17T02:04:00.977Z,81.45
2022-08-17T02:06:52.697Z,81.60
2022-08-17T02:09:29.879Z,81.79
2022-08-17T02:12:38.080Z,81.60
2022-08-17T02:14:54.906Z,81.39
2022-08-17T02:17:26.414Z,81.85
2022-08-17T02:19:57.756Z,81.36
2022-08-17T02:22:29.085Z,81.71
2022-08-17T02:25:02.272Z,81.89
2022-08-17T02:27:33.894Z,81.26
2022-08-17T02:30:59.083Z,81.51
2022-08-17T02:32:59.716Z,81.13
2022-08-17T02:35:37.069Z,81.15
2022-08-17T02:38:08.706Z,80.99
2022-08-17T02:40:40.521Z,81.48
2022-08-17T02:43:13.635Z,81.41
2022-08-17T02:45:44.925Z,82.05
2022-08-17T02:48:16.257Z,81.37
2022-08-17T02:51:02.732Z,81.26
2022-08-17T02:53:36.025Z,81.32
2022-08-17T02:56:07.666Z,80.97
2022-08-17T02:58:39.116Z,81.10
2022-08-17T03:01:10.820Z,81.54
2022-08-17T03:03:42.396Z,81.24
2022-08-17T03:06:13.730Z,81.62
2022-08-17T03:08:45.104Z,81.72
2022-08-17T03:11:16.422Z,81.28
2022-08-17T03:13:47.770Z,81.66
2022-08-17T03:16:19.084Z,81.04
2022-08-17T03:18:50.404Z,81.19
2022-08-17T03:21:21.773Z,81.37
2022-08-17T03:23:54.497Z,81.73
2022-08-17T03:26:29.643Z,81.75
2022-08-17T03:29:01.279Z,82.04
2022-08-17T03:31:32.660Z,81.62
2022-08-17T03:34:08.429Z,82.09
2022-08-17T03:36:39.747Z,81.25
2022-08-17T03:39:11.178Z,82.38
2022-08-17T03:41:43.662Z,82.64
2022-08-17T03:44:14.961Z,82.50
2022-08-17T03:47:05.144Z,82.43
2022-08-17T03:49:55.064Z,82.75
2022-08-17T03:52:45.158Z,82.65
2022-08-17T03:55:41.638Z,82.30
2022-08-17T03:58:13.032Z,82.68
2022-08-17T04:00:45.562Z,82.68
2022-08-17T04:03:18.125Z,82.52
2022-08-17T04:05:49.438Z,82.62
2022-08-17T04:08:20.967Z,83.42
2022-08-17T04:10:52.284Z,82.62
2022-08-17T04:13:24.827Z,82.55
2022-08-17T04:15:59.137Z,82.71
2022-08-17T04:18:30.451Z,83.01
2022-08-17T04:21:05.066Z,82.51
2022-08-17T04:23:37.785Z,82.99
2022-08-17T04:26:09.118Z,82.74
2022-08-17T04:28:42.079Z,82.83
2022-08-17T04:31:14.547Z,82.50
2022-08-17T04:33:45.912Z,82.82
2022-08-17T04:36:17.256Z,82.50
2022-08-17T04:38:48.615Z,82.86
2022-08-17T04:41:38.625Z,82.40
2022-08-17T04:44:14.743Z,82.14
2022-08-17T04:47:07.096Z,82.04
2022-08-17T04:49:41.887Z,82.49
2022-08-17T04:52:29.641Z,82.10
2022-08-17T04:55:04.798Z,82.21
2022-08-17T04:57:39.374Z,82.40
2022-08-17T05:00:13.789Z,82.20
2022-08-17T05:02:49.956Z,81.84
2022-08-17T05:05:36.202Z,81.70
2022-08-17T05:08:07.897Z,82.10
2022-08-17T05:10:39.512Z,82.01
2022-08-17T05:13:20.310Z,81.23
2022-08-17T05:15:57.839Z,81.16
2022-08-17T05:18:29.770Z,81.25
2022-08-17T05:21:02.239Z,80.79
2022-08-17T05:23:41.747Z,80.71
2022-08-17T05:26:25.787Z,80.58
2022-08-17T05:29:02.866Z,80.83
2022-08-17T05:31:34.447Z,80.68
2022-08-17T05:34:05.798Z,80.24
2022-08-17T05:36:43.853Z,79.84
2022-08-17T05:39:17.211Z,79.74
2022-08-17T05:41:48.810Z,79.72
2022-08-17T05:44:20.168Z,79.33
2022-08-17T05:46:54.061Z,79.40
2022-08-17T05:49:28.535Z,79.28
2022-08-17T05:52:20.064Z,79.20
2022-08-17T05:54:57.887Z,78.66
2022-08-17T05:57:43.500Z,78.58
2022-08-17T06:00:31.283Z,78.24
2022-08-17T06:03:24.604Z,78.18
2022-08-17T06:06:19.569Z,77.45
2022-08-17T06:09:34.004Z,75.08
2022-08-17T06:12:33.816Z,72.16
2022-08-17T06:15:14.131Z,71.17
2022-08-17T06:17:45.877Z,70.45
2022-08-17T06:20:17.382Z,69.31
2022-08-17T06:22:54.005Z,68.66
2022-08-17T06:25:31.385Z,67.82
2022-08-17T06:28:13.965Z,67.76
2022-08-17T06:31:00.722Z,68.25
2022-08-17T06:33:38.229Z,67.44
2022-08-17T06:36:55.866Z,67.15
2022-08-17T06:39:45.879Z,67.76
2022-08-17T06:42:54.959Z,68.32
2022-08-17T06:45:17.660Z,68.03
2022-08-17T06:47:55.644Z,67.98
2022-08-17T06:50:47.606Z,67.39
2022-08-17T06:53:31.640Z,67.08
2022-08-17T06:56:21.764Z,67.15
2022-08-17T06:58:56.897Z,66.77
2022-08-17T07:01:37.466Z,67.17
2022-08-17T07:04:14.156Z,66.51
2022-08-17T07:06:53.154Z,66.37
2022-08-17T07:09:34.328Z,66.14
2022-08-17T07:12:15.817Z,65.12
2022-08-17T07:14:59.361Z,64.77
2022-08-17T07:17:47.563Z,64.83
2022-08-17T07:20:22.560Z,64.27
2022-08-17T07:23:08.816Z,64.02
2022-08-17T07:25:40.136Z,63.19
2022-08-17T07:28:12.927Z,62.57
2022-08-17T07:30:53.176Z,61.45
2022-08-17T07:33:28.160Z,61.41
2022-08-17T07:36:00.202Z,61.31
2022-08-17T07:38:34.337Z,61.09
2022-08-17T07:41:08.237Z,60.45
2022-08-17T07:43:39.558Z,60.10
2022-08-17T07:46:29.404Z,59.01
2022-08-17T07:49:00.661Z,58.88
2022-08-17T07:51:52.718Z,58.47
2022-08-17T07:54:39.011Z,58.30
2022-08-17T07:57:10.267Z,58.29
2022-08-17T08:00:01.868Z,56.61
2022-08-17T08:02:41.369Z,57.29
2022-08-17T08:05:48.709Z,57.16
2022-08-17T08:08:43.544Z,56.17
2022-08-17T08:11:27.819Z,56.78
2022-08-17T08:14:33.544Z,55.25
2022-08-17T08:17:07.505Z,55.61
2022-08-17T08:19:40.746Z,54.84
2022-08-17T08:22:21.979Z,54.26
2022-08-17T08:25:14.222Z,53.71
2022-08-17T08:27:57.120Z,53.57
2022-08-17T08:30:33.069Z,52.20
2022-08-17T08:33:10.258Z,52.81
2022-08-17T08:35:55.476Z,51.27
2022-08-17T08:38:48.755Z,51.31
2022-08-17T08:41:34.302Z,50.99
2022-08-17T08:45:00.473Z,51.44
2022-08-17T08:47:37.716Z,50.59
2022-08-17T08:50:37.110Z,50.56
2022-08-17T08:53:32.724Z,49.53
2022-08-17T08:56:16.335Z,49.21
2022-08-17T08:58:50.709Z,48.63
2022-08-17T09:01:38.052Z,49.08
2022-08-17T09:04:50.198Z,47.88
2022-08-17T09:07:42.037Z,48.82
2022-08-17T09:10:25.434Z,48.82
2022-08-17T09:13:15.549Z,48.72
2022-08-17T09:15:52.490Z,47.94
2022-08-17T09:19:00.224Z,47.71
2022-08-17T09:21:26.629Z,48.37
2022-08-17T09:24:09.722Z,48.71
2022-08-17T09:26:51.151Z,48.89
2022-08-17T09:29:25.435Z,47.76
2022-08-17T09:32:17.379Z,46.90
2022-08-17T09:34:55.999Z,47.67
2022-08-17T09:37:33.612Z,46.40
2022-08-17T09:40:15.752Z,46.92
2022-08-17T09:42:54.274Z,47.16
2022-08-17T09:45:42.517Z,46.53
2022-08-17T09:48:31.986Z,45.54
2022-08-17T09:51:18.154Z,45.22
2022-08-17T09:53:50.317Z,44.95
2022-08-17T09:56:21.643Z,44.44
2022-08-17T09:59:34.236Z,44.80
2022-08-17T10:02:28.776Z,45.35
2022-08-17T10:05:08.899Z,45.39
2022-08-17T10:08:12.326Z,44.88
2022-08-17T10:10:52.394Z,44.76
2022-08-17T10:13:53.711Z,43.45
2022-08-17T10:16:25.530Z,43.42
2022-08-17T10:19:03.291Z,43.95
2022-08-17T10:22:00.585Z,43.19
2022-08-17T10:25:22.867Z,42.88
2022-08-17T10:27:59.613Z,42.94
2022-08-17T10:30:36.487Z,41.94
2022-08-17T10:33:26.181Z,41.69
2022-08-17T10:36:10.698Z,42.00
2022-08-17T10:39:02.996Z,42.37
2022-08-17T10:41:42.938Z,42.43
2022-08-17T10:44:39.371Z,42.10
2022-08-17T10:47:16.306Z,42.38
2022-08-17T10:49:53.697Z,42.04
2022-08-17T10:52:47.654Z,42.44
2022-08-17T10:55:20.287Z,43.07
2022-08-17T10:57:54.731Z,43.13
2022-08-17T11:00:27.861Z,42.71
2022-08-17T11:03:00.067Z,42.78
2022-08-17T11:05:55.597Z,42.90
2022-08-17T11:09:08.247Z,42.55
2022-08-17T11:11:59.507Z,42.39
2022-08-17T11:14:50.542Z,42.12
2022-08-17T11:17:40.637Z,41.86
2022-08-17T11:20:45.975Z,41.83
2022-08-17T11:23:48.251Z,41.21
2022-08-17T11:26:30.511Z,41.29
2022-08-17T11:29:21.975Z,41.07
2022-08-17T11:32:11.445Z,41.10
2022-08-17T11:34:44.484Z,41.21
2022-08-17T11:37:24.733Z,42.08
2022-08-17T11:40:12.694Z,41.77
2022-08-17T11:43:10.613Z,41.79
2022-08-17T11:45:45.183Z,41.68
2022-08-17T11:49:06.795Z,42.18
2022-08-17T11:52:10.842Z,42.44
2022-08-17T11:54:47.606Z,42.47
2022-08-17T11:57:29.406Z,42.33
2022-08-17T12:00:12.188Z,41.88
2022-08-17T12:02:48.083Z,42.06
2022-08-17T12:05:21.856Z,42.00
2022-08-17T12:08:17.728Z,41.69
2022-08-17T12:10:56.486Z,42.53
2022-08-17T12:13:38.723Z,42.76
2022-08-17T12:16:17.399Z,41.91
2022-08-17T12:19:02.273Z,41.78
2022-08-17T12:21:59.374Z,41.85
2022-08-17T12:24:55.322Z,42.01
2022-08-17T12:27:54.811Z,42.35
2022-08-17T12:30:23.002Z,42.49
2022-08-17T12:32:54.424Z,42.54
2022-08-17T12:35:35.880Z,41.98
2022-08-17T12:38:31.916Z,42.35
2022-08-17T12:41:21.707Z,41.27
2022-08-17T12:44:03.427Z,41.55
2022-08-17T12:47:03.235Z,41.27
2022-08-17T12:49:39.688Z,41.56
2022-08-17T12:52:19.499Z,41.38
2022-08-17T12:54:59.834Z,41.41
2022-08-17T12:57:42.122Z,41.52
2022-08-17T13:00:26.654Z,41.71
2022-08-17T13:02:57.913Z,42.40
2022-08-17T13:05:33.960Z,42.13
2022-08-17T13:08:18.578Z,41.76
2022-08-17T13:11:16.464Z,42.12
2022-08-17T13:13:51.218Z,41.88
2022-08-17T13:16:26.586Z,42.11
2022-08-17T13:19:03.988Z,42.91
2022-08-17T13:21:37.599Z,42.90
2022-08-17T13:24:11.897Z,42.48
2022-08-17T13:26:54.319Z,42.91
2022-08-17T13:29:30.600Z,41.71
2022-08-17T13:32:06.215Z,42.40
2022-08-17T13:35:14.303Z,42.58
2022-08-17T13:37:41.023Z,42.77
2022-08-17T13:40:14.029Z,42.42
2022-08-17T13:42:52.086Z,42.36
2022-08-17T13:45:39.815Z,42.01
2022-08-17T13:48:23.092Z,41.89
2022-08-17T13:50:54.353Z,42.63
2022-08-17T13:53:31.191Z,43.29
2022-08-17T13:56:37.104Z,43.34
2022-08-17T13:59:16.357Z,43.47
2022-08-17T14:01:53.799Z,42.95
2022-08-17T14:04:29.316Z,43.09
2022-08-17T14:07:23.130Z,43.40
2022-08-17T14:10:01.563Z,43.46
2022-08-17T14:12:34.820Z,42.95
2022-08-17T14:15:07.690Z,43.82
2022-08-17T14:17:39.593Z,43.30
2022-08-17T14:20:13.235Z,43.62
2022-08-17T14:22:48.213Z,43.30
2022-08-17T14:25:24.097Z,42.85
2022-08-17T14:27:56.278Z,43.29
2022-08-17T14:30:30.096Z,42.67
2022-08-17T14:33:02.228Z,42.80
2022-08-17T14:35:34.330Z,43.61
2022-08-17T14:38:06.002Z,43.76
2022-08-17T14:40:37.832Z,43.60
2022-08-17T14:43:09.245Z,42.95
2022-08-17T14:45:41.150Z,43.58
2022-08-17T14:48:13.053Z,43.27
2022-08-17T14:50:46.039Z,43.18
2022-08-17T14:53:17.497Z,43.44
2022-08-17T14:55:50.576Z,43.33
2022-08-17T14:58:23.394Z,43.15
2022-08-17T15:00:55.343Z,43.09
2022-08-17T15:03:26.682Z,43.32
2022-08-17T15:05:57.990Z,43.24
2022-08-17T15:08:30.238Z,42.86
2022-08-17T15:11:02.938Z,42.99
2022-08-17T15:13:34.262Z,42.11
2022-08-17T15:16:05.843Z,42.74
2022-08-17T15:18:37.187Z,42.83
2022-08-17T15:21:11.880Z,41.97
2022-08-17T15:23:43.653Z,42.90
2022-08-17T15:26:15.056Z,42.81
2022-08-17T15:28:52.211Z,43.10
2022-08-17T15:31:29.887Z,42.71
2022-08-17T15:34:05.264Z,42.71
2022-08-17T15:36:40.675Z,43.76
2022-08-17T15:39:20.636Z,43.85
2022-08-17T15:41:58.512Z,44.01
2022-08-17T15:44:35.007Z,43.65
2022-08-17T15:47:06.611Z,44.61
2022-08-17T15:49:41.719Z,43.86
2022-08-17T15:52:17.178Z,43.78
2022-08-17T15:54:54.704Z,43.66
2022-08-17T15:57:27.534Z,44.08
2022-08-17T15:59:59.212Z,43.81
2022-08-17T16:03:44.481Z,44.35
2022-08-17T16:05:27.078Z,45.33
2022-08-17T16:07:59.548Z,45.30
2022-08-17T16:10:35.103Z,45.54
2022-08-17T16:13:17.615Z,45.22
2022-08-17T16:15:57.206Z,45.37
2022-08-17T16:18:31.519Z,45.05
2022-08-17T16:21:24.986Z,45.41
2022-08-17T16:24:13.338Z,44.99
2022-08-17T16:26:45.077Z,45.78
2022-08-17T16:29:16.631Z,45.91
2022-08-17T16:31:48.016Z,45.44
2022-08-17T16:34:19.566Z,46.09
2022-08-17T16:36:55.779Z,45.94
2022-08-17T16:39:29.099Z,45.68
2022-08-17T16:42:02.660Z,45.98
2022-08-17T16:44:33.967Z,46.11
2022-08-17T16:47:07.355Z,45.84
2022-08-17T16:49:39.284Z,46.29
2022-08-17T16:52:11.261Z,45.90
2022-08-17T16:54:44.418Z,46.12
2022-08-17T16:57:17.345Z,46.80
2022-08-17T16:59:51.389Z,46.09
2022-08-17T17:02:34.578Z,46.69
2022-08-17T17:05:11.705Z,46.58
2022-08-17T17:07:55.593Z,47.05
2022-08-17T17:10:50.749Z,47.48
2022-08-17T17:13:32.560Z,47.63
2022-08-17T17:16:21.482Z,48.74
2022-08-17T17:19:08.964Z,49.06
2022-08-17T17:22:08.973Z,49.84
2022-08-17T17:25:13.142Z,50.43
2022-08-17T17:27:57.124Z,51.10
2022-08-17T17:30:55.051Z,51.63
2022-08-17T17:33:42.470Z,52.28
2022-08-17T17:36:34.461Z,52.88
2022-08-17T17:39:31.768Z,53.06
2022-08-17T17:42:08.339Z,52.76
2022-08-17T17:44:49.693Z,52.50
2022-08-17T17:47:21.325Z,51.91
2022-08-17T17:49:52.698Z,51.99
2022-08-17T17:52:32.452Z,52.78
2022-08-17T17:55:32.741Z,54.41
2022-08-17T17:58:25.416Z,57.21
2022-08-17T18:01:17.285Z,60.77
2022-08-17T18:04:17.045Z,62.14
2022-08-17T18:07:12.129Z,64.18
2022-08-17T18:10:19.491Z,66.27
2022-08-17T18:13:15.265Z,66.93
2022-08-17T18:15:54.219Z,68.28
2022-08-17T18:18:38.176Z,69.41
2022-08-17T18:21:16.851Z,70.02
2022-08-17T18:23:54.592Z,70.88
2022-08-17T18:26:37.758Z,72.09
2022-08-17T18:29:27.682Z,73.19
2022-08-17T18:32:19.069Z,74.30
2022-08-17T18:34:59.526Z,74.40
2022-08-17T18:37:34.137Z,74.43
2022-08-17T18:40:34.838Z,75.34
2022-08-17T18:43:24.777Z,74.99
2022-08-17T18:45:57.372Z,75.24
2022-08-17T18:48:33.654Z,75.73
2022-08-17T18:51:51.054Z,76.32
2022-08-17T18:54:24.531Z,75.68
2022-08-17T18:56:58.970Z,76.15
2022-08-17T18:59:40.402Z,76.79
2022-08-17T19:02:20.589Z,77.01
2022-08-17T19:05:22.985Z,76.88
2022-08-17T19:08:19.077Z,77.16
2022-08-17T19:10:57.183Z,78.23
2022-08-17T19:13:33.542Z,78.54
2022-08-17T19:16:20.065Z,79.65
2022-08-17T19:19:05.518Z,79.67
2022-08-17T19:21:45.658Z,80.24
2022-08-17T19:24:20.102Z,80.36
2022-08-17T19:26:56.569Z,81.04
2022-08-17T19:29:44.852Z,81.49
2022-08-17T19:32:21.332Z,81.09
2022-08-17T19:34:53.187Z,81.42
2022-08-17T19:37:46.928Z,81.30
2022-08-17T19:40:52.414Z,81.56
2022-08-17T19:43:30.235Z,81.65
2022-08-17T19:46:19.037Z,81.65
2022-08-17T19:49:11.115Z,82.03
2022-08-17T19:52:08.655Z,82.17
2022-08-17T19:54:47.838Z,82.55
2022-08-17T19:57:38.597Z,82.60
2022-08-17T20:00:14.484Z,82.69
2022-08-17T20:03:08.290Z,82.78
2022-08-17T20:06:13.706Z,82.94
2022-08-17T20:09:01.962Z,82.68
2022-08-17T20:11:46.769Z,83.37
2022-08-17T20:14:27.736Z,82.94
2022-08-17T20:17:02.616Z,83.44
2022-08-17T20:19:53.175Z,83.55
2022-08-17T20:22:36.838Z,83.84
2022-08-17T20:25:42.416Z,84.18
2022-08-17T20:28:24.040Z,84.15
2022-08-17T20:30:56.238Z,84.56
2022-08-17T20:33:36.819Z,84.33
2022-08-17T20:36:10.994Z,84.45
2022-08-17T20:38:55.341Z,84.91
2022-08-17T20:41:30.289Z,85.11
2022-08-17T20:44:04.749Z,85.26
2022-08-17T20:46:36.006Z,85.02
2022-08-17T20:49:38.142Z,85.62
2022-08-17T20:52:16.469Z,85.69
2022-08-17T20:54:53.747Z,86.11
2022-08-17T20:57:37.116Z,86.13
2022-08-17T21:00:50.918Z,85.91
2022-08-17T21:03:26.629Z,86.15
2022-08-17T21:06:14.423Z,86.07
2022-08-17T21:09:13.091Z,86.90
2022-08-17T21:12:04.317Z,86.99
2022-08-17T21:15:00.626Z,87.06
2022-08-17T21:17:47.743Z,87.23
2022-08-17T21:20:32.245Z,87.16
2022-08-17T21:23:12.926Z,87.22
2022-08-17T21:26:17.240Z,87.43
2022-08-17T21:29:29.984Z,87.71
2022-08-17T21:31:59.084Z,87.86
2022-08-17T21:34:34.638Z,87.78
2022-08-17T21:37:22.168Z,87.64
2022-08-17T21:40:24.050Z,87.78
2022-08-17T21:43:00.013Z,88.48
2022-08-17T21:45:35.006Z,87.90
2022-08-17T21:48:16.838Z,88.17
2022-08-17T21:51:02.805Z,88.61
2022-08-17T21:53:39.983Z,88.50
2022-08-17T21:56:19.576Z,88.18
2022-08-17T21:58:59.148Z,88.73
2022-08-17T22:01:34.844Z,88.18
2022-08-17T22:04:12.183Z,88.24
2022-08-17T22:06:52.389Z,88.34
2022-08-17T22:09:31.509Z,88.73
2022-08-17T22:12:08.974Z,88.70
2022-08-17T22:14:52.345Z,88.47
2022-08-17T22:17:34.268Z,88.60
2022-08-17T22:20:18.430Z,88.74
2022-08-17T22:23:08.363Z,88.97
2022-08-17T22:26:00.046Z,88.56
2022-08-17T22:28:49.150Z,88.72
2022-08-17T22:31:29.635Z,88.58
2022-08-17T22:34:03.697Z,89.09
2022-08-17T22:36:37.327Z,89.07
2022-08-17T22:39:08.582Z,89.19
2022-08-17T22:41:48.556Z,89.04
2022-08-17T22:44:29.490Z,89.05
2022-08-17T22:47:11.097Z,89.67
2022-08-17T22:49:53.827Z,89.73
2022-08-17T22:52:32.583Z,89.33
2022-08-17T22:55:34.322Z,89.74
2022-08-17T22:58:38.692Z,89.83
2022-08-17T23:01:29.943Z,89.85
2022-08-17T23:04:05.750Z,89.32
2022-08-17T23:06:41.688Z,89.90
2022-08-17T23:09:13.018Z,89.46
2022-08-17T23:11:49.119Z,89.45
2022-08-17T23:14:21.384Z,89.42
2022-08-17T23:16:52.729Z,89.40
2022-08-17T23:19:24.043Z,89.95
2022-08-17T23:21:56.690Z,89.59
2022-08-17T23:24:32.600Z,89.55
2022-08-17T23:27:07.256Z,89.45
2022-08-17T23:29:41.964Z,89.39
2022-08-17T23:32:15.720Z,90.06
2022-08-17T23:34:48.082Z,89.85
2022-08-17T23:37:19.782Z,90.03
2022-08-17T23:39:51.245Z,89.32
2022-08-17T23:42:22.882Z,89.67
2022-08-17T23:44:54.186Z,89.33
2022-08-17T23:47:25.543Z,88.93
2022-08-17T23:49:57.005Z,89.03
2022-08-17T23:52:39.049Z,89.29
2022-08-17T23:55:14.985Z,89.24
2022-08-17T23:57:51.139Z,89.02
